createdAt,value
2018-03-16T00:00:59.004Z,81.61
2018-03-16T00:03:24.765Z,81.90
2018-03-16T00:05:50.881Z,82.09
2018-03-16T00:08:16.646Z,81.59
2018-03-16T00:10:42.943Z,81.68
2018-03-16T00:13:08.702Z,81.48
2018-03-16T00:15:34.483Z,81.58
2018-03-16T00:18:00.299Z,81.63
2018-03-16T00:20:26.035Z,81.54
2018-03-16T00:22:58.738Z,81.36
2018-03-16T00:25:24.539Z,81.44
2018-03-16T00:27:50.310Z,81.37
2018-03-16T00:30:16.056Z,81.27
2018-03-16T00:32:41.818Z,81.42
2018-03-16T00:35:07.594Z,81.62
2018-03-16T00:37:33.333Z,81.70
2018-03-16T00:39:59.098Z,81.43
2018-03-16T00:42:24.854Z,81.33
2018-03-16T00:44:52.016Z,81.49
2018-03-16T00:47:17.818Z,81.21
2018-03-16T00:49:43.586Z,81.10
2018-03-16T00:52:09.338Z,81.19
2018-03-16T00:54:35.122Z,81.18
2018-03-16T00:57:00.927Z,81.17
2018-03-16T00:59:26.777Z,81.26
2018-03-16T01:01:52.526Z,81.23
2018-03-16T01:04:18.300Z,81.39
2018-03-16T01:06:44.139Z,81.06
2018-03-16T01:09:09.891Z,81.14
2018-03-16T01:11:35.651Z,81.34
2018-03-16T01:14:01.517Z,81.34
2018-03-16T01:16:27.283Z,81.22
2018-03-16T01:18:53.025Z,81.24
2018-03-16T01:23:51.366Z,81.31
2018-03-16T01:26:17.151Z,81.02
2018-03-16T01:28:42.898Z,81.17
2018-03-16T01:31:08.685Z,81.41
2018-03-16T01:33:34.476Z,81.45
2018-03-16T01:36:00.243Z,80.86
2018-03-16T01:38:26.039Z,80.60
2018-03-16T01:40:51.806Z,81.00
2018-03-16T01:43:17.555Z,81.02
2018-03-16T01:45:43.338Z,80.98
2018-03-16T01:48:09.168Z,80.86
2018-03-16T01:50:34.947Z,81.15
2018-03-16T01:53:13.023Z,81.20
2018-03-16T01:55:38.826Z,80.60
2018-03-16T01:58:04.619Z,80.81
2018-03-16T02:00:30.379Z,80.79
2018-03-16T02:02:56.174Z,80.66
2018-03-16T02:05:21.920Z,80.84
2018-03-16T02:07:47.698Z,81.20
2018-03-16T02:10:13.475Z,80.92
2018-03-16T02:12:39.263Z,81.12
2018-03-16T02:15:05.035Z,81.02
2018-03-16T02:17:30.791Z,80.46
2018-03-16T02:19:56.553Z,80.71
2018-03-16T02:22:22.322Z,80.85
2018-03-16T02:24:48.065Z,80.63
2018-03-16T02:27:13.841Z,80.47
2018-03-16T02:29:39.607Z,80.51
2018-03-16T02:32:05.411Z,80.26
2018-03-16T02:34:31.175Z,79.78
2018-03-16T02:36:56.967Z,79.81
2018-03-16T02:39:22.739Z,79.95
2018-03-16T02:41:48.470Z,80.18
2018-03-16T02:44:14.253Z,80.24
2018-03-16T02:46:40.014Z,80.05
2018-03-16T02:49:05.774Z,80.27
2018-03-16T02:51:31.562Z,80.10
2018-03-16T02:53:57.340Z,80.34
2018-03-16T02:56:23.139Z,80.40
2018-03-16T02:58:48.927Z,80.47
2018-03-16T03:01:14.710Z,80.54
2018-03-16T03:03:40.495Z,80.37
2018-03-16T03:06:06.275Z,79.76
2018-03-16T03:08:32.062Z,79.32
2018-03-16T03:10:57.838Z,79.36
2018-03-16T03:13:23.589Z,79.09
2018-03-16T03:15:49.369Z,78.87
2018-03-16T03:18:15.129Z,78.70
2018-03-16T03:20:40.905Z,78.88
2018-03-16T03:23:06.666Z,78.97
2018-03-16T03:25:32.454Z,79.42
2018-03-16T03:27:58.232Z,79.17
2018-03-16T03:30:24.000Z,79.16
2018-03-16T03:32:49.767Z,79.07
2018-03-16T03:35:15.547Z,78.67
2018-03-16T03:37:41.298Z,78.71
2018-03-16T03:40:07.078Z,78.97
2018-03-16T03:42:32.825Z,79.33
2018-03-16T03:44:58.593Z,79.43
2018-03-16T03:47:24.360Z,79.14
2018-03-16T03:49:50.151Z,79.17
2018-03-16T03:52:15.932Z,79.04
2018-03-16T03:54:41.703Z,78.75
2018-03-16T03:57:07.494Z,78.12
2018-03-16T03:59:33.257Z,78.19
2018-03-16T04:01:59.031Z,78.22
2018-03-16T04:04:24.791Z,78.40
2018-03-16T04:06:50.598Z,78.89
2018-03-16T04:09:16.371Z,79.17
2018-03-16T04:11:42.147Z,78.59
2018-03-16T04:14:07.919Z,78.31
2018-03-16T04:16:33.697Z,78.45
2018-03-16T04:18:59.495Z,78.16
2018-03-16T04:21:25.323Z,78.07
2018-03-16T04:23:51.066Z,78.06
2018-03-16T04:26:16.851Z,77.75
2018-03-16T04:28:42.619Z,77.32
2018-03-16T04:31:08.368Z,77.19
2018-03-16T04:33:34.135Z,77.00
2018-03-16T04:35:59.935Z,77.28
2018-03-16T04:38:25.745Z,77.10
2018-03-16T04:40:51.510Z,77.18
2018-03-16T04:43:17.305Z,77.16
2018-03-16T04:45:43.094Z,76.74
2018-03-16T04:48:08.851Z,76.73
2018-03-16T04:50:34.620Z,76.85
2018-03-16T04:53:00.396Z,76.74
2018-03-16T04:55:26.147Z,76.54
2018-03-16T04:57:51.935Z,76.38
2018-03-16T05:00:17.703Z,75.76
2018-03-16T05:02:43.472Z,75.76
2018-03-16T05:05:09.224Z,75.90
2018-03-16T05:07:34.974Z,76.13
2018-03-16T05:10:00.706Z,75.40
2018-03-16T05:12:26.446Z,75.32
2018-03-16T05:14:52.186Z,75.46
2018-03-16T05:17:17.932Z,75.73
2018-03-16T05:19:43.675Z,75.15
2018-03-16T05:22:09.410Z,75.18
2018-03-16T05:24:35.167Z,75.19
2018-03-16T05:27:00.916Z,75.53
2018-03-16T05:29:26.663Z,75.35
2018-03-16T05:31:52.413Z,75.48
2018-03-16T05:34:18.142Z,75.42
2018-03-16T05:36:43.883Z,75.08
2018-03-16T05:39:09.637Z,75.10
2018-03-16T05:41:35.370Z,74.63
2018-03-16T05:44:01.126Z,74.97
2018-03-16T05:46:26.862Z,74.81
2018-03-16T05:48:52.619Z,74.64
2018-03-16T05:51:18.346Z,74.79
2018-03-16T05:53:44.093Z,75.01
2018-03-16T05:56:09.850Z,74.93
2018-03-16T05:58:35.575Z,74.37
2018-03-16T06:01:01.324Z,74.15
2018-03-16T06:03:27.071Z,73.45
2018-03-16T06:05:52.815Z,73.02
2018-03-16T06:08:18.558Z,72.94
2018-03-16T06:10:44.301Z,73.48
2018-03-16T06:13:10.038Z,73.49
2018-03-16T06:15:35.791Z,73.02
2018-03-16T06:18:01.510Z,72.93
2018-03-16T06:20:27.264Z,73.54
2018-03-16T06:22:52.987Z,72.90
2018-03-16T06:25:18.731Z,72.78
2018-03-16T06:27:44.482Z,72.48
2018-03-16T06:30:10.238Z,72.35
2018-03-16T06:32:35.965Z,72.45
2018-03-16T06:35:01.712Z,72.83
2018-03-16T06:37:27.437Z,73.01
2018-03-16T06:39:53.177Z,72.73
2018-03-16T06:42:18.918Z,73.21
2018-03-16T06:44:44.749Z,72.62
2018-03-16T06:47:10.448Z,72.83
2018-03-16T06:49:36.183Z,72.67
2018-03-16T06:52:01.931Z,72.54
2018-03-16T06:54:27.670Z,73.06
2018-03-16T06:56:53.422Z,72.91
2018-03-16T06:59:19.147Z,73.24
2018-03-16T07:01:44.896Z,73.27
2018-03-16T07:04:10.621Z,73.23
2018-03-16T07:06:36.365Z,73.13
2018-03-16T07:09:02.125Z,72.52
2018-03-16T07:11:27.882Z,72.39
2018-03-16T07:13:53.658Z,72.62
2018-03-16T07:16:19.428Z,73.09
2018-03-16T07:18:45.161Z,73.45
2018-03-16T07:21:18.074Z,72.92
2018-03-16T07:23:43.801Z,72.30
2018-03-16T07:26:09.545Z,72.54
2018-03-16T07:28:35.277Z,72.00
2018-03-16T07:31:01.008Z,71.96
2018-03-16T07:33:26.768Z,71.94
2018-03-16T07:35:52.519Z,72.31
2018-03-16T07:38:18.250Z,72.40
2018-03-16T07:40:43.982Z,72.51
2018-03-16T07:43:09.734Z,72.70
2018-03-16T07:45:41.560Z,72.43
2018-03-16T07:48:07.308Z,72.86
2018-03-16T07:50:33.046Z,73.07
2018-03-16T07:52:58.774Z,72.92
2018-03-16T07:55:24.512Z,73.16
2018-03-16T07:57:50.270Z,73.62
2018-03-16T08:00:16.010Z,73.84
2018-03-16T08:02:41.766Z,74.02
2018-03-16T08:05:07.512Z,74.13
2018-03-16T08:07:33.253Z,74.32
2018-03-16T08:09:58.978Z,74.35
2018-03-16T08:12:24.724Z,74.17
2018-03-16T08:14:50.462Z,73.57
2018-03-16T08:17:16.208Z,73.59
2018-03-16T08:19:41.977Z,73.31
2018-03-16T08:22:07.719Z,72.78
2018-03-16T08:24:33.470Z,72.63
2018-03-16T08:26:59.217Z,72.78
2018-03-16T08:29:24.959Z,72.82
2018-03-16T08:31:50.690Z,73.08
2018-03-16T08:34:16.435Z,73.17
2018-03-16T08:36:42.154Z,73.27
2018-03-16T08:39:07.962Z,73.60
2018-03-16T08:41:33.666Z,73.85
2018-03-16T08:43:59.417Z,73.66
2018-03-16T08:46:25.154Z,73.57
2018-03-16T08:48:50.890Z,73.72
2018-03-16T08:51:16.883Z,73.88
2018-03-16T08:53:42.669Z,73.79
2018-03-16T08:56:08.402Z,73.85
2018-03-16T08:58:34.187Z,73.86
2018-03-16T09:00:59.932Z,73.83
2018-03-16T09:03:25.690Z,74.13
2018-03-16T09:05:51.434Z,73.91
2018-03-16T09:08:17.170Z,73.69
2018-03-16T09:10:42.903Z,72.64
2018-03-16T09:13:08.634Z,71.79
2018-03-16T09:15:34.381Z,71.81
2018-03-16T09:18:00.118Z,71.51
2018-03-16T09:20:25.877Z,71.07
2018-03-16T09:22:51.614Z,70.89
2018-03-16T09:25:17.355Z,70.10
2018-03-16T09:27:43.089Z,69.11
2018-03-16T09:30:08.818Z,68.11
2018-03-16T09:32:34.548Z,68.00
2018-03-16T09:35:00.295Z,66.27
2018-03-16T09:37:26.040Z,65.10
2018-03-16T09:39:51.788Z,64.66
2018-03-16T09:42:17.633Z,64.68
2018-03-16T09:44:43.383Z,63.71
2018-03-16T09:47:12.362Z,64.29
2018-03-16T09:49:38.526Z,64.50
2018-03-16T09:52:04.711Z,64.69
2018-03-16T09:57:24.882Z,63.83
2018-03-16T09:59:50.649Z,64.75
2018-03-16T10:02:16.674Z,64.24
2018-03-16T10:04:42.542Z,62.61
2018-03-16T10:07:08.343Z,62.15
2018-03-16T10:09:34.073Z,62.13
2018-03-16T10:11:59.979Z,62.27
2018-03-16T10:14:25.766Z,61.58
2018-03-16T10:16:51.839Z,61.57
2018-03-16T10:19:17.956Z,61.82
2018-03-16T10:21:43.794Z,61.84
2018-03-16T10:24:09.618Z,61.47
2018-03-16T10:26:35.454Z,61.36
2018-03-16T10:29:01.287Z,60.69
2018-03-16T10:31:27.043Z,61.34
2018-03-16T10:33:52.799Z,61.48
2018-03-16T10:36:18.549Z,60.86
2018-03-16T10:38:44.294Z,60.03
2018-03-16T10:41:10.043Z,60.24
2018-03-16T10:43:35.786Z,60.26
2018-03-16T10:46:01.526Z,60.70
2018-03-16T10:48:27.342Z,60.31
2018-03-16T10:50:53.108Z,60.27
2018-03-16T10:53:18.874Z,59.98
2018-03-16T10:55:44.622Z,60.29
2018-03-16T10:58:10.381Z,59.58
2018-03-16T11:00:42.222Z,59.70
2018-03-16T11:03:07.973Z,60.58
2018-03-16T11:08:32.469Z,61.32
2018-03-16T11:10:58.218Z,61.45
2018-03-16T11:13:23.955Z,62.18
2018-03-16T11:15:49.706Z,61.97
2018-03-16T11:18:15.471Z,61.50
2018-03-16T11:20:41.211Z,61.11
2018-03-16T11:23:06.969Z,61.59
2018-03-16T11:25:32.707Z,60.47
2018-03-16T11:27:58.443Z,60.72
2018-03-16T11:30:24.189Z,60.58
2018-03-16T11:32:49.934Z,60.42
2018-03-16T11:35:15.683Z,61.07
2018-03-16T11:37:41.432Z,61.05
2018-03-16T11:40:07.178Z,61.24
2018-03-16T11:42:32.911Z,60.80
2018-03-16T11:44:58.666Z,60.62
2018-03-16T11:47:24.406Z,61.22
2018-03-16T11:49:50.146Z,61.96
2018-03-16T11:52:15.891Z,61.37
2018-03-16T11:54:41.644Z,61.31
2018-03-16T11:57:07.379Z,60.71
2018-03-16T11:59:33.143Z,60.13
2018-03-16T12:01:58.897Z,59.58
2018-03-16T12:04:24.637Z,58.94
2018-03-16T12:06:50.363Z,57.92
2018-03-16T12:09:16.090Z,57.90
2018-03-16T12:11:41.834Z,57.97
2018-03-16T12:14:07.564Z,57.67
2018-03-16T12:16:33.310Z,57.23
2018-03-16T12:18:59.057Z,56.34
2018-03-16T12:21:24.825Z,57.83
2018-03-16T12:23:50.561Z,57.24
2018-03-16T12:26:16.314Z,57.31
2018-03-16T12:28:49.754Z,58.00
2018-03-16T12:31:07.818Z,58.53
2018-03-16T12:33:33.561Z,58.57
2018-03-16T12:35:59.305Z,58.93
2018-03-16T12:38:25.029Z,58.61
2018-03-16T12:40:50.779Z,58.51
2018-03-16T12:43:16.510Z,57.50
2018-03-16T12:45:42.258Z,57.29
2018-03-16T12:48:08.016Z,56.85
2018-03-16T12:50:33.770Z,57.09
2018-03-16T12:52:59.498Z,57.04
2018-03-16T12:55:25.241Z,58.40
2018-03-16T12:57:50.970Z,58.28
2018-03-16T13:00:16.706Z,58.99
2018-03-16T13:02:42.493Z,57.74
2018-03-16T13:05:08.190Z,57.39
2018-03-16T13:07:33.945Z,57.05
2018-03-16T13:09:59.704Z,57.46
2018-03-16T13:12:25.438Z,57.75
2018-03-16T13:14:51.172Z,58.86
2018-03-16T13:17:16.937Z,59.21
2018-03-16T13:19:42.678Z,60.11
2018-03-16T13:22:08.418Z,60.28
2018-03-16T13:24:34.147Z,60.70
2018-03-16T13:26:59.930Z,60.16
2018-03-16T13:29:25.685Z,59.54
2018-03-16T13:31:51.430Z,60.11
2018-03-16T13:34:17.196Z,60.58
2018-03-16T13:36:42.965Z,60.50
2018-03-16T13:39:08.723Z,60.52
2018-03-16T13:41:34.449Z,59.42
2018-03-16T13:44:00.194Z,57.99
2018-03-16T13:46:25.935Z,58.16
2018-03-16T13:48:51.687Z,58.34
2018-03-16T13:51:17.426Z,58.49
2018-03-16T13:53:43.177Z,58.68
2018-03-16T13:56:08.975Z,58.74
2018-03-16T13:58:34.714Z,59.62
2018-03-16T14:01:00.473Z,60.05
2018-03-16T14:03:26.251Z,60.87
2018-03-16T14:05:52.256Z,60.72
2018-03-16T14:08:18.000Z,58.86
2018-03-16T14:10:43.747Z,59.34
2018-03-16T14:13:09.502Z,59.98
2018-03-16T14:15:35.279Z,59.71
2018-03-16T14:18:01.017Z,59.99
2018-03-16T14:20:26.790Z,58.18
2018-03-16T14:22:52.643Z,58.24
2018-03-16T14:25:18.385Z,57.91
2018-03-16T14:27:44.137Z,58.41
2018-03-16T14:30:09.882Z,59.06
2018-03-16T14:32:35.622Z,60.21
2018-03-16T14:35:01.456Z,61.98
2018-03-16T14:37:27.214Z,62.25
2018-03-16T14:39:52.967Z,62.60
2018-03-16T14:42:18.787Z,62.43
2018-03-16T14:44:44.580Z,62.14
2018-03-16T14:47:10.410Z,60.67
2018-03-16T14:49:36.190Z,60.82
2018-03-16T14:52:01.929Z,59.81
2018-03-16T14:54:27.699Z,59.15
2018-03-16T14:56:53.462Z,58.94
2018-03-16T14:59:19.229Z,59.71
2018-03-16T15:01:45.041Z,58.44
2018-03-16T15:04:10.778Z,57.67
2018-03-16T15:06:36.549Z,57.39
2018-03-16T15:09:02.311Z,57.60
2018-03-16T15:11:28.077Z,58.08
2018-03-16T15:13:53.883Z,58.51
2018-03-16T15:16:19.614Z,58.62
2018-03-16T15:18:45.403Z,59.13
2018-03-16T15:21:11.873Z,57.65
2018-03-16T15:23:37.651Z,56.84
2018-03-16T15:26:03.414Z,56.39
2018-03-16T15:28:29.190Z,56.91
2018-03-16T15:30:54.964Z,56.13
2018-03-16T15:33:20.711Z,56.96
2018-03-16T15:35:46.530Z,56.33
2018-03-16T15:38:12.267Z,57.37
2018-03-16T15:40:38.041Z,57.67
2018-03-16T15:43:03.795Z,58.08
2018-03-16T15:45:29.572Z,57.92
2018-03-16T15:47:55.323Z,57.45
2018-03-16T15:50:21.082Z,58.04
2018-03-16T15:52:46.825Z,57.56
2018-03-16T15:55:12.597Z,57.56
2018-03-16T15:57:38.351Z,58.52
2018-03-16T16:00:04.158Z,59.23
2018-03-16T16:02:29.908Z,60.33
2018-03-16T16:04:55.747Z,60.30
2018-03-16T16:07:21.515Z,60.34
2018-03-16T16:09:47.321Z,60.76
2018-03-16T16:12:13.060Z,60.57
2018-03-16T16:14:38.831Z,60.42
2018-03-16T16:17:04.590Z,61.02
2018-03-16T16:19:30.338Z,59.48
2018-03-16T16:21:56.082Z,59.21
2018-03-16T16:24:21.842Z,59.13
2018-03-16T16:26:47.629Z,58.87
2018-03-16T16:29:13.405Z,59.65
2018-03-16T16:31:39.170Z,59.82
2018-03-16T16:34:04.942Z,61.77
2018-03-16T16:36:30.717Z,62.58
2018-03-16T16:38:56.469Z,63.27
2018-03-16T16:41:22.262Z,63.58
2018-03-16T16:43:48.009Z,64.49
2018-03-16T16:46:13.787Z,65.46
2018-03-16T16:48:39.550Z,64.31
2018-03-16T16:51:05.322Z,63.86
2018-03-16T16:53:31.063Z,64.78
2018-03-16T16:55:56.802Z,63.87
2018-03-16T16:58:22.555Z,64.50
2018-03-16T17:00:48.291Z,64.86
2018-03-16T17:03:14.037Z,65.35
2018-03-16T17:05:39.794Z,65.72
2018-03-16T17:08:05.546Z,67.01
2018-03-16T17:10:31.274Z,68.13
2018-03-16T17:12:57.015Z,69.11
2018-03-16T17:15:22.762Z,69.21
2018-03-16T17:17:48.509Z,69.49
2018-03-16T17:20:14.246Z,69.98
2018-03-16T17:22:40.000Z,70.02
2018-03-16T17:25:05.754Z,71.41
2018-03-16T17:27:31.556Z,71.60
2018-03-16T17:29:57.267Z,71.25
2018-03-16T17:32:24.335Z,70.97
2018-03-16T17:34:48.778Z,70.04
2018-03-16T17:37:14.522Z,69.83
2018-03-16T17:39:40.271Z,69.20
2018-03-16T17:42:06.007Z,69.49
2018-03-16T17:44:31.752Z,68.76
2018-03-16T17:46:57.495Z,68.51
2018-03-16T17:49:23.244Z,67.52
2018-03-16T17:51:48.982Z,68.34
2018-03-16T17:54:14.718Z,69.25
2018-03-16T17:56:40.468Z,69.49
2018-03-16T17:59:06.222Z,69.42
2018-03-16T18:01:31.969Z,69.01
2018-03-16T18:03:57.718Z,69.01
2018-03-16T18:06:23.518Z,69.84
2018-03-16T18:08:49.255Z,68.72
2018-03-16T18:11:14.995Z,67.45
2018-03-16T18:13:40.790Z,65.65
2018-03-16T18:16:06.518Z,64.44
2018-03-16T18:18:32.275Z,63.44
2018-03-16T18:20:58.008Z,62.52
2018-03-16T18:23:23.746Z,61.21
2018-03-16T18:25:49.499Z,60.64
2018-03-16T18:28:15.262Z,59.89
2018-03-16T18:30:41.004Z,59.43
2018-03-16T18:33:06.735Z,58.57
2018-03-16T18:35:32.486Z,59.26
2018-03-16T18:37:58.213Z,58.26
2018-03-16T18:40:23.970Z,58.00
2018-03-16T18:42:49.831Z,58.36
2018-03-16T18:45:15.591Z,59.37
2018-03-16T18:47:41.335Z,59.98
2018-03-16T18:50:07.110Z,62.25
2018-03-16T18:52:32.856Z,63.58
2018-03-16T18:54:58.602Z,67.23
2018-03-16T18:57:24.348Z,68.32
2018-03-16T18:59:50.099Z,66.71
2018-03-16T19:02:15.836Z,65.49
2018-03-16T19:04:41.596Z,65.92
2018-03-16T19:07:07.359Z,65.95
2018-03-16T19:09:33.105Z,65.96
2018-03-16T19:11:58.830Z,62.44
2018-03-16T19:14:24.608Z,62.56
2018-03-16T19:16:50.333Z,64.15
2018-03-16T19:19:16.067Z,63.87
2018-03-16T19:21:41.826Z,62.50
2018-03-16T19:24:07.974Z,61.58
2018-03-16T19:26:33.728Z,62.73
2018-03-16T19:28:59.475Z,63.34
2018-03-16T19:31:25.226Z,64.33
2018-03-16T19:33:50.967Z,69.53
2018-03-16T19:36:16.714Z,70.62
2018-03-16T19:38:42.458Z,70.28
2018-03-16T19:41:08.286Z,70.72
2018-03-16T19:43:34.035Z,68.85
2018-03-16T19:45:59.883Z,67.57
2018-03-16T19:48:25.632Z,67.25
2018-03-16T19:50:51.387Z,67.68
2018-03-16T19:53:17.144Z,67.84
2018-03-16T19:55:42.907Z,66.80
2018-03-16T19:58:08.671Z,66.85
2018-03-16T20:00:34.429Z,66.33
2018-03-16T20:03:00.171Z,66.94
2018-03-16T20:05:25.940Z,65.20
2018-03-16T20:07:51.871Z,64.09
2018-03-16T20:10:17.647Z,63.71
2018-03-16T20:12:43.407Z,63.73
2018-03-16T20:15:09.151Z,63.78
2018-03-16T20:17:34.902Z,63.79
2018-03-16T20:20:00.698Z,61.75
2018-03-16T20:22:26.405Z,62.49
2018-03-16T20:24:52.135Z,63.11
2018-03-16T20:27:17.914Z,63.05
2018-03-16T20:29:43.656Z,62.60
2018-03-16T20:32:09.410Z,62.82
2018-03-16T20:34:35.143Z,62.99
2018-03-16T20:37:00.909Z,62.08
2018-03-16T20:39:26.657Z,62.27
2018-03-16T20:41:52.426Z,62.22
2018-03-16T20:44:18.167Z,61.54
2018-03-16T20:46:44.321Z,62.50
2018-03-16T20:49:10.151Z,63.59
2018-03-16T20:51:35.929Z,64.65
2018-03-16T20:54:01.872Z,68.34
2018-03-16T20:56:27.630Z,71.86
2018-03-16T20:58:53.379Z,72.66
2018-03-16T21:01:19.106Z,71.60
2018-03-16T21:03:44.859Z,69.19
2018-03-16T21:06:10.597Z,68.97
2018-03-16T21:08:36.351Z,69.11
2018-03-16T21:11:02.098Z,68.66
2018-03-16T21:13:27.850Z,68.30
2018-03-16T21:15:53.663Z,67.21
2018-03-16T21:18:19.416Z,67.41
2018-03-16T21:20:45.155Z,66.93
2018-03-16T21:23:10.928Z,64.95
2018-03-16T21:25:36.674Z,62.15
2018-03-16T21:28:02.422Z,62.71
2018-03-16T21:30:28.211Z,62.82
2018-03-16T21:32:53.945Z,64.88
2018-03-16T21:35:19.707Z,67.97
2018-03-16T21:37:45.439Z,69.88
2018-03-16T21:40:11.210Z,72.00
2018-03-16T21:42:36.954Z,71.58
2018-03-16T21:45:02.723Z,70.54
2018-03-16T21:47:28.458Z,70.22
2018-03-16T21:49:54.211Z,68.42
2018-03-16T21:52:19.951Z,67.53
2018-03-16T21:54:45.694Z,65.87
2018-03-16T21:57:11.419Z,65.86
2018-03-16T21:59:37.220Z,67.88
2018-03-16T22:02:02.967Z,70.54
2018-03-16T22:04:28.718Z,74.93
2018-03-16T22:06:54.490Z,77.56
2018-03-16T22:09:20.231Z,76.90
2018-03-16T22:11:45.997Z,76.27
2018-03-16T22:14:11.733Z,73.20
2018-03-16T22:16:37.511Z,71.39
2018-03-16T22:19:03.650Z,70.97
2018-03-16T22:21:36.479Z,70.52
2018-03-16T22:24:02.228Z,70.63
2018-03-16T22:26:27.978Z,70.09
2018-03-16T22:28:53.727Z,69.58
2018-03-16T22:31:19.488Z,69.53
2018-03-16T22:33:45.226Z,69.96
2018-03-16T22:36:10.986Z,70.26
2018-03-16T22:38:36.724Z,70.26
2018-03-16T22:41:02.488Z,69.85
2018-03-16T22:43:28.221Z,69.36
2018-03-16T22:45:54.000Z,69.66
2018-03-16T22:48:19.746Z,70.22
2018-03-16T22:50:45.506Z,70.37
2018-03-16T22:53:11.248Z,70.71
2018-03-16T22:55:36.990Z,70.81
2018-03-16T22:58:02.736Z,69.24
2018-03-16T23:00:28.483Z,68.92
2018-03-16T23:02:54.246Z,68.41
2018-03-16T23:05:20.002Z,67.81
2018-03-16T23:07:45.748Z,67.57
2018-03-16T23:10:11.486Z,68.30
2018-03-16T23:12:37.245Z,70.11
2018-03-16T23:15:02.987Z,74.64
2018-03-16T23:17:28.748Z,80.01
2018-03-16T23:19:54.482Z,83.39
2018-03-16T23:22:20.230Z,83.02
2018-03-16T23:24:45.973Z,82.65
2018-03-16T23:27:11.747Z,82.75
2018-03-16T23:29:37.493Z,78.86
2018-03-16T23:32:03.242Z,76.60
2018-03-16T23:34:28.994Z,75.58
2018-03-16T23:36:54.746Z,78.87
2018-03-16T23:39:20.512Z,79.39
2018-03-16T23:41:46.246Z,79.31
2018-03-16T23:44:12.004Z,81.73
2018-03-16T23:46:37.769Z,84.88
2018-03-16T23:49:03.523Z,85.00
2018-03-16T23:51:29.278Z,83.99
2018-03-16T23:53:55.032Z,81.90
2018-03-16T23:56:20.975Z,78.97
2018-03-16T23:58:46.746Z,76.87
